createdAt,value
2018-08-22T00:04:54.238Z,18.30
2018-08-22T00:08:57.422Z,18.20
2018-08-22T00:13:00.601Z,18.20
2018-08-22T00:17:03.703Z,18.10
2018-08-22T00:21:06.922Z,18.10
2018-08-22T00:25:10.012Z,18.10
2018-08-22T00:29:13.231Z,18.10
2018-08-22T00:33:16.415Z,17.80
2018-08-22T00:37:19.537Z,17.80
2018-08-22T00:41:22.767Z,17.80
2018-08-22T00:45:26.008Z,17.70
2018-08-22T00:49:29.119Z,17.70
2018-08-22T00:53:32.242Z,17.70
2018-08-22T00:57:35.320Z,17.70
2018-08-22T01:01:38.611Z,17.70
2018-08-22T01:05:41.709Z,17.60
2018-08-22T01:09:44.820Z,17.60
2018-08-22T01:13:47.906Z,17.60
2018-08-22T01:17:51.020Z,17.60
2018-08-22T01:21:54.090Z,17.60
2018-08-22T01:25:57.316Z,17.50
2018-08-22T01:30:00.421Z,17.50
2018-08-22T01:34:03.770Z,17.50
2018-08-22T01:38:06.981Z,17.40
2018-08-22T01:42:10.155Z,17.40
2018-08-22T01:46:13.236Z,17.30
2018-08-22T01:50:16.347Z,17.30
2018-08-22T01:54:19.568Z,17.30
2018-08-22T01:58:22.703Z,17.30
2018-08-22T02:02:25.841Z,17.20
2018-08-22T02:06:29.051Z,17.20
2018-08-22T02:10:32.164Z,17.20
2018-08-22T02:14:35.335Z,17.20
2018-08-22T02:18:38.420Z,17.10
2018-08-22T02:22:41.685Z,17.10
2018-08-22T02:26:44.834Z,17.10
2018-08-22T02:30:48.040Z,17.00
2018-08-22T02:34:51.276Z,16.80
2018-08-22T02:38:54.503Z,16.70
2018-08-22T02:42:57.584Z,16.70
2018-08-22T02:47:00.720Z,16.80
2018-08-22T02:51:03.823Z,16.80
2018-08-22T02:55:06.980Z,16.90
2018-08-22T02:59:10.081Z,16.90
2018-08-22T03:03:13.938Z,16.90
2018-08-22T03:07:17.041Z,16.90
2018-08-22T03:11:20.184Z,16.90
2018-08-22T03:15:23.316Z,16.80
2018-08-22T03:19:26.463Z,16.80
2018-08-22T03:23:29.627Z,16.80
2018-08-22T03:27:32.801Z,16.80
2018-08-22T03:31:35.884Z,16.80
2018-08-22T03:35:39.228Z,16.80
2018-08-22T03:39:42.316Z,16.90
2018-08-22T03:43:45.524Z,16.90
2018-08-22T03:47:48.676Z,16.90
2018-08-22T03:51:51.828Z,16.80
2018-08-22T03:55:54.913Z,16.70
2018-08-22T03:59:58.101Z,16.70
2018-08-22T04:04:01.264Z,16.90
2018-08-22T04:08:04.381Z,16.90
2018-08-22T04:12:07.500Z,17.00
2018-08-22T04:16:10.642Z,16.90
2018-08-22T04:20:13.820Z,16.90
2018-08-22T04:24:17.044Z,17.00
2018-08-22T04:28:20.172Z,16.90
2018-08-22T04:32:23.416Z,16.90
2018-08-22T04:36:26.752Z,16.80
2018-08-22T04:40:29.923Z,16.90
2018-08-22T04:44:33.000Z,16.90
2018-08-22T04:48:36.151Z,16.90
2018-08-22T04:52:39.271Z,16.90
2018-08-22T04:56:42.499Z,16.90
2018-08-22T05:00:45.632Z,16.90
2018-08-22T05:04:48.779Z,16.90
2018-08-22T05:08:51.872Z,16.70
2018-08-22T05:12:55.081Z,16.70
2018-08-22T05:16:58.177Z,16.50
2018-08-22T05:21:01.359Z,16.60
2018-08-22T05:25:04.578Z,16.60
2018-08-22T05:29:07.772Z,16.60
2018-08-22T05:33:10.872Z,16.60
2018-08-22T05:37:14.136Z,16.70
2018-08-22T05:41:17.280Z,16.90
2018-08-22T05:45:20.532Z,14.50
2018-08-22T05:49:23.636Z,16.90
2018-08-22T05:53:26.753Z,17.20
2018-08-22T05:57:29.872Z,17.40
2018-08-22T06:01:33.092Z,17.40
2018-08-22T06:05:36.189Z,17.50
2018-08-22T06:09:39.338Z,17.70
2018-08-22T06:13:42.447Z,17.80
2018-08-22T06:17:46.001Z,18.00
2018-08-22T06:21:49.141Z,18.30
2018-08-22T06:25:52.380Z,18.20
2018-08-22T06:29:55.486Z,18.40
2018-08-22T06:33:58.608Z,18.70
2018-08-22T06:38:01.697Z,18.70
2018-08-22T06:42:04.831Z,18.80
2018-08-22T06:46:08.025Z,18.90
2018-08-22T06:54:14.092Z,19.00
2018-08-22T06:58:17.243Z,19.10
2018-08-22T07:02:20.393Z,19.20
2018-08-22T07:10:26.436Z,19.40
2018-08-22T07:14:29.801Z,19.50
2018-08-22T07:18:33.053Z,19.60
2018-08-22T07:22:36.293Z,19.80
2018-08-22T07:26:39.388Z,20.10
2018-08-22T07:30:42.540Z,20.30
2018-08-22T07:34:45.634Z,20.60
2018-08-22T07:38:48.780Z,20.60
2018-08-22T07:42:51.856Z,20.90
2018-08-22T07:46:55.092Z,21.20
2018-08-22T07:50:58.197Z,21.40
2018-08-22T07:55:01.345Z,21.50
2018-08-22T07:59:11.810Z,21.80
2018-08-22T08:03:15.041Z,21.80
2018-08-22T08:07:18.132Z,22.00
2018-08-22T08:11:21.276Z,22.00
2018-08-22T08:15:24.370Z,22.40
2018-08-22T08:19:27.620Z,22.70
2018-08-22T08:23:30.784Z,22.70
2018-08-22T08:27:33.941Z,22.90
2018-08-22T08:31:37.036Z,22.90
2018-08-22T08:35:40.179Z,23.00
2018-08-22T08:39:43.260Z,23.20
2018-08-22T08:43:46.404Z,23.20
2018-08-22T08:47:49.524Z,23.30
2018-08-22T08:51:58.909Z,23.50
2018-08-22T08:56:02.457Z,23.50
2018-08-22T09:00:05.673Z,23.90
2018-08-22T09:04:08.785Z,23.90
2018-08-22T09:08:12.008Z,24.00
2018-08-22T09:12:15.191Z,24.10
2018-08-22T09:16:18.265Z,24.40
2018-08-22T09:20:21.671Z,24.60
2018-08-22T09:24:24.891Z,24.70
2018-08-22T09:44:40.591Z,25.10
2018-08-22T09:48:43.741Z,25.20
2018-08-22T10:00:58.092Z,25.50
2018-08-22T10:05:01.325Z,25.50
2018-08-22T10:17:17.337Z,25.90
2018-08-22T10:29:26.782Z,26.40
2018-08-22T10:33:29.936Z,26.40
2018-08-22T10:45:39.132Z,26.90
2018-08-22T10:49:42.256Z,26.90
2018-08-22T10:53:45.456Z,27.00
2018-08-22T11:01:51.498Z,27.40
2018-08-22T11:09:57.619Z,27.60
2018-08-22T11:14:00.700Z,27.60
2018-08-22T11:18:03.984Z,27.60
2018-08-22T11:22:18.601Z,27.50
2018-08-22T11:30:41.616Z,27.60
2018-08-22T11:34:45.580Z,27.50
2018-08-22T11:38:48.691Z,27.40
2018-08-22T11:42:51.938Z,27.60
2018-08-22T11:50:58.027Z,27.70
2018-08-22T11:55:01.126Z,27.60
2018-08-22T12:07:10.289Z,26.90
2018-08-22T12:15:17.120Z,27.40
2018-08-22T12:23:23.425Z,27.00
2018-08-22T12:31:29.416Z,26.70
2018-08-22T12:35:32.549Z,26.80
2018-08-22T12:43:38.552Z,27.60
2018-08-22T12:47:41.792Z,27.70
2018-08-22T12:59:50.656Z,26.80
2018-08-22T13:07:56.774Z,26.50
2018-08-22T13:11:59.993Z,26.50
2018-08-22T13:20:06.172Z,26.20
2018-08-22T13:24:09.470Z,26.10
2018-08-22T13:28:12.540Z,26.10
2018-08-22T13:32:15.633Z,26.10
2018-08-22T13:44:25.343Z,26.20
2018-08-22T13:48:28.433Z,26.30
2018-08-22T13:52:31.552Z,26.30
2018-08-22T14:00:37.917Z,26.50
2018-08-22T14:04:41.004Z,26.50
2018-08-22T14:16:49.926Z,26.40
2018-08-22T14:24:56.075Z,26.50
2018-08-22T14:28:59.181Z,26.50
2018-08-22T14:33:02.440Z,26.60
2018-08-22T14:37:05.668Z,26.50
2018-08-22T14:41:08.797Z,26.50
2018-08-22T14:45:12.006Z,26.40
2018-08-22T14:49:15.137Z,26.30
2018-08-22T14:53:18.333Z,26.20
2018-08-22T14:57:21.560Z,26.10
2018-08-22T15:09:30.528Z,25.90
2018-08-22T15:17:36.652Z,25.80
2018-08-22T15:21:39.866Z,25.80
2018-08-22T15:25:43.166Z,25.70
2018-08-22T15:29:46.341Z,25.50
2018-08-22T15:37:52.412Z,25.50
2018-08-22T15:45:58.460Z,25.40
2018-08-22T15:54:13.247Z,25.10
2018-08-22T15:58:16.352Z,25.00
2018-08-22T16:02:19.477Z,24.90
2018-08-22T16:10:25.489Z,24.90
2018-08-22T16:18:33.865Z,24.80
2018-08-22T16:22:36.984Z,24.70
2018-08-22T16:34:46.096Z,24.40
2018-08-22T16:38:49.185Z,24.20
2018-08-22T16:42:52.432Z,24.20
2018-08-22T16:46:55.564Z,24.20
2018-08-22T16:55:11.676Z,24.00
2018-08-22T17:11:23.664Z,23.80
2018-08-22T17:19:29.749Z,23.80
2018-08-22T17:23:34.950Z,23.70
2018-08-22T17:31:41.225Z,23.60
2018-08-22T17:39:47.416Z,23.50
2018-08-22T17:44:08.193Z,23.50
2018-08-22T17:48:11.414Z,23.30
2018-08-22T17:52:14.508Z,23.10
2018-08-22T17:56:19.748Z,22.90
2018-08-22T18:04:25.826Z,22.50
2018-08-22T18:08:29.000Z,22.40
2018-08-22T18:16:35.011Z,22.00
2018-08-22T18:24:48.052Z,22.10
2018-08-22T18:28:51.338Z,22.00
2018-08-22T18:32:54.444Z,22.00
2018-08-22T18:36:57.586Z,21.90
2018-08-22T18:45:08.644Z,21.90
2018-08-22T18:49:11.736Z,21.90
2018-08-22T18:53:16.160Z,21.80
2018-08-22T18:57:19.520Z,21.80
2018-08-22T19:05:30.109Z,21.60
2018-08-22T19:09:33.204Z,21.50
2018-08-22T19:13:36.309Z,21.40
2018-08-22T19:17:45.996Z,21.30
2018-08-22T19:25:53.013Z,21.10
2018-08-22T19:29:56.449Z,21.00
2018-08-22T19:38:04.617Z,20.90
2018-08-22T19:46:10.732Z,20.70
2018-08-22T19:50:13.893Z,20.60
2018-08-22T19:54:17.090Z,20.50
2018-08-22T19:58:28.505Z,20.30
2018-08-22T20:02:31.625Z,20.20
2018-08-22T20:06:34.852Z,20.20
2018-08-22T20:10:37.958Z,20.10
2018-08-22T20:14:46.936Z,20.00
2018-08-22T20:18:52.936Z,20.00
2018-08-22T20:22:56.339Z,20.00
2018-08-22T20:27:02.400Z,20.00
2018-08-22T20:31:09.896Z,19.90
2018-08-22T20:35:17.293Z,19.80
2018-08-22T20:39:20.683Z,19.80
2018-08-22T20:43:28.850Z,19.60
2018-08-22T20:47:31.980Z,19.60
2018-08-22T20:51:35.104Z,19.60
2018-08-22T20:55:38.374Z,19.50
2018-08-22T20:59:41.406Z,19.40
2018-08-22T21:03:44.600Z,19.40
2018-08-22T21:07:47.708Z,19.40
2018-08-22T21:11:54.952Z,19.20
2018-08-22T21:15:58.625Z,19.20
2018-08-22T21:20:08.552Z,19.20
2018-08-22T21:24:11.678Z,19.20
2018-08-22T21:28:14.834Z,19.10
2018-08-22T21:32:18.266Z,19.10
2018-08-22T21:36:21.421Z,19.00
2018-08-22T21:40:24.548Z,19.00
2018-08-22T21:44:27.764Z,19.00
2018-08-22T21:48:30.877Z,19.00
2018-08-22T21:52:49.904Z,19.00
2018-08-22T21:56:53.004Z,19.00
2018-08-22T22:00:56.137Z,18.90
2018-08-22T22:04:59.278Z,18.90
2018-08-22T22:09:02.638Z,18.80
2018-08-22T22:13:05.881Z,18.80
2018-08-22T22:17:09.053Z,18.80
2018-08-22T22:21:14.706Z,18.80
2018-08-22T22:25:17.884Z,18.80
2018-08-22T22:29:24.028Z,18.80
2018-08-22T22:37:30.521Z,18.70
2018-08-22T22:41:33.644Z,18.70
2018-08-22T22:45:36.878Z,18.70
2018-08-22T22:49:40.041Z,18.70
2018-08-22T22:53:43.157Z,18.60
2018-08-22T22:57:46.317Z,18.50
2018-08-22T23:01:49.421Z,18.30
2018-08-22T23:05:52.568Z,18.30
2018-08-22T23:09:57.747Z,18.10
2018-08-22T23:14:00.885Z,18.00
2018-08-22T23:18:03.980Z,17.90
2018-08-22T23:22:07.224Z,17.90
2018-08-22T23:26:15.632Z,17.80
2018-08-22T23:30:21.204Z,17.80
2018-08-22T23:34:24.633Z,17.80
2018-08-22T23:38:29.920Z,17.60
2018-08-22T23:42:33.056Z,17.60
2018-08-22T23:46:36.272Z,17.60
2018-08-22T23:50:55.000Z,17.70
2018-08-22T23:54:58.124Z,17.60
